Wetterdaten: aktuell Dienstag, 22.09.2020 04:00
Datum Zeit Temp. A. Luft Gew. Boden Gew. Boden A. Feuchte A. Luftdruck Regen Wind Richtung Richtung Sonnenschein ET UV Solar Taupunkt Windchill Windben Empfang
22.09.2020 04:00 10.6 C 10.6 C 0.0 C 0.0 C 92 % 1015.1 hPa 0.0 l/m 0.0 km/h (0 Bft) O-NO 67 0 min 0.000 mm 0.0 UV-I 0 W/m 9.4 C 10.6 C 0.0 km/h (0 Bft) 100.00 %
22.09.2020 03:00 11.1 C 11.1 C 0.0 C 0.0 C 91 % 1015.1 hPa 0.0 l/m 0.0 km/h (0 Bft) O-NO 67 0 min 0.000 mm 0.0 UV-I 0 W/m 9.7 C 11.1 C 0.0 km/h (0 Bft) 100.00 %
22.09.2020 02:00 11.7 C 11.7 C 0.0 C 0.0 C 90 % 1015.2 hPa 0.0 l/m 0.0 km/h (0 Bft) O-NO 67 0 min 0.000 mm 0.0 UV-I 0 W/m 10.1 C 11.7 C 0.0 km/h (0 Bft) 97.44 %
22.09.2020 01:00 12.3 C 12.2 C 0.0 C 0.0 C 90 % 1015.4 hPa 0.0 l/m 0.0 km/h (0 Bft) O-NO 67 0 min 0.000 mm 0.0 UV-I 0 W/m 10.7 C 12.3 C 0.0 km/h (0 Bft) 97.44 %
22.09.2020 00:00 12.9 C 13.3 C 0.0 C 0.0 C 91 % 1015.6 hPa 0.0 l/m 0.0 km/h (0 Bft) O-NO 67 0 min 0.000 mm 0.0 UV-I 0 W/m 11.5 C 12.9 C 0.0 km/h (0 Bft) 99.15 %
21.09.2020 23:00 13.8 C 14.4 C 0.0 C 0.0 C 89 % 1015.9 hPa 0.0 l/m 0.0 km/h (0 Bft) O-NO 67 0 min 0.000 mm 0.0 UV-I 0 W/m 12.0 C 13.8 C 0.0 km/h (0 Bft) 99.15 %
21.09.2020 22:00 14.8 C 15.6 C 0.0 C 0.0 C 88 % 1016.0 hPa 0.0 l/m 0.0 km/h (0 Bft) O-NO 67 0 min 0.001 mm 0.0 UV-I 0 W/m 12.8 C 14.8 C 0.0 km/h (0 Bft) 100.00 %
21.09.2020 21:00 15.8 C 17.2 C 0.0 C 0.0 C 83 % 1016.1 hPa 0.0 l/m 0.0 km/h (0 Bft) O-NO 67 0 min 0.000 mm 0.0 UV-I 0 W/m 12.9 C 15.8 C 0.0 km/h (0 Bft) 100.00 %
21.09.2020 20:00 17.8 C 20.6 C 0.0 C 0.0 C 75 % 1015.8 hPa 0.0 l/m 0.0 km/h (0 Bft) O-NO 67 0 min 0.051 mm 0.0 UV-I 0 W/m 13.3 C 17.8 C 0.0 km/h (0 Bft) 100.00 %
21.09.2020 19:00 21.0 C 24.4 C 0.0 C 0.0 C 63 % 1015.6 hPa 0.0 l/m 0.0 km/h (0 Bft) O-NO 67 0 min 0.152 mm 0.0 UV-I 19 W/m 13.7 C 21.0 C 0.0 km/h (0 Bft) 100.00 %
21.09.2020 18:00 22.8 C 27.2 C 0.0 C 0.0 C 59 % 1015.6 hPa 0.0 l/m 1.1 km/h (1 Bft) O 80 50 min 0.229 mm 0.0 UV-I 133 W/m 14.4 C 22.8 C 4.8 km/h (1 Bft) 98.29 %
21.09.2020 17:00 23.4 C 27.8 C 0.0 C 0.0 C 58 % 1015.7 hPa 0.0 l/m 1.7 km/h (1 Bft) O 91 60 min 0.330 mm 1.0 UV-I 297 W/m 14.7 C 23.4 C 6.4 km/h (2 Bft) 94.87 %
21.09.2020 16:00 23.6 C 28.3 C 0.0 C 0.0 C 55 % 1016.0 hPa 0.0 l/m 3.2 km/h (1 Bft) NO 38 60 min 0.355 mm 2.0 UV-I 436 W/m 14.0 C 23.6 C 8.0 km/h (2 Bft) 98.29 %
21.09.2020 15:00 23.7 C 25.6 C 0.0 C 0.0 C 55 % 1016.3 hPa 0.0 l/m 1.6 km/h (1 Bft) N 360 60 min 0.381 mm 3.0 UV-I 547 W/m 14.1 C 23.7 C 9.7 km/h (2 Bft) 97.44 %
21.09.2020 14:00 22.6 C 23.3 C 0.0 C 0.0 C 61 % 1016.8 hPa 0.0 l/m 3.9 km/h (1 Bft) NO 54 60 min 0.001 mm 3.8 UV-I 603 W/m 14.7 C 22.6 C 8.0 km/h (2 Bft) 97.56 %
21.09.2020 13:00 21.4 C 23.3 C 0.0 C 0.0 C 63 % 1017.2 hPa 0.0 l/m 2.2 km/h (1 Bft) O-NO 63 60 min 0.279 mm 4.0 UV-I 614 W/m 14.1 C 21.4 C 8.0 km/h (2 Bft) 97.50 %
21.09.2020 12:00 19.8 C 23.9 C 0.0 C 0.0 C 68 % 1017.5 hPa 0.0 l/m 0.7 km/h (0 Bft) SW 217 60 min 0.229 mm 3.6 UV-I 505 W/m 13.7 C 19.8 C 3.2 km/h (1 Bft) 96.64 %
21.09.2020 11:00 17.1 C 21.1 C 0.0 C 0.0 C 78 % 1017.8 hPa 0.0 l/m 0.0 km/h (0 Bft) N 11 60 min 0.127 mm 2.6 UV-I 473 W/m 13.2 C 17.1 C 0.0 km/h (0 Bft) 97.44 %
21.09.2020 10:00 14.1 C 13.9 C 0.0 C 0.0 C 84 % 1017.7 hPa 0.0 l/m 0.1 km/h (0 Bft) N 11 45 min 0.025 mm 1.6 UV-I 359 W/m 11.4 C 14.1 C 1.6 km/h (1 Bft) 100.00 %
21.09.2020 09:00 10.8 C 9.4 C 0.0 C 0.0 C 95 % 1017.7 hPa 0.0 l/m 0.0 km/h (0 Bft) N-NO 12 0 min 0.025 mm 0.0 UV-I 50 W/m 10.0 C 10.8 C 1.6 km/h (1 Bft) 100.00 %
21.09.2020 08:00 8.2 C 8.3 C 0.0 C 0.0 C 93 % 1017.7 hPa 0.0 l/m 0.0 km/h (0 Bft) N-NO 12 0 min 0.000 mm 0.0 UV-I 33 W/m 7.1 C 8.2 C 0.0 km/h (0 Bft) 98.29 %
21.09.2020 07:00 8.3 C 8.3 C 0.0 C 0.0 C 91 % 1017.3 hPa 0.0 l/m 0.0 km/h (0 Bft) N-NO 12 0 min 0.000 mm 0.0 UV-I 0 W/m 6.9 C 8.3 C 0.0 km/h (0 Bft) 99.15 %
21.09.2020 06:00 8.8 C 8.9 C 0.0 C 0.0 C 91 % 1017.1 hPa 0.0 l/m 0.0 km/h (0 Bft) N-NO 12 0 min 0.000 mm 0.0 UV-I 0 W/m 7.4 C 8.8 C 0.0 km/h (0 Bft) 100.00 %
21.09.2020 05:00 9.2 C 9.4 C 0.0 C 0.0 C 90 % 1017.0 hPa 0.0 l/m 0.0 km/h (0 Bft) N-NO 12 0 min 0.000 mm 0.0 UV-I 0 W/m 7.6 C 9.2 C 0.0 km/h (0 Bft) 100.00 %
_ Min-Zeit 07:35 06:25 05:00 05:00 14:55 02:35 - 05:00 - - - - - - 07:20 07:20 05:00 16:05
Minimum _ 8.0 C 8.3 C 0.0 C 0.0 C 54 % 1015.0 hPa - 0.0 km/h (0 Bft) - - - - - - 6.7 C 8.1 C 0.0 km/h (0 Bft) 91.45 %
_ Max-Zeit 15:40 16:05 05:00 05:00 08:50 08:30 05:00 14:00 - - 09:20 14:05 12:55 13:10 14:45 15:35 15:00 05:00
Maximum _ 24.2 C 28.9 C 0.0 C 0.0 C 96 % 1017.8 hPa 0.0 l/m 3.9 km/h
NO (1 Bft)
- - 5 min 0.381 mm 4.0 UV-I 615 W/m 15.7 C 24.1 C 9.7 km/h
O-NO (2 Bft)
100.00 %
Durchschnitt _ 15.4 C 16.7 C 0.0 C 0.0 C 79 % 1016.4 hPa #0.0 l/m 0.4 km/h (0 Bft) O-NO - #0 min. #0.000 mm 0.0 UV-I 0 W/m 11.4 C 15.4 C 1.9 km/h (1 Bft) 98.72 %